Time;durP1;ratioP1;P1;durP2;ratioP2;P2;SDS_P1;SDS_P2;PMS_P1;PMS_P2;Temp;Humidity;BMP_temperature;BMP_pressure;BME280_temperature;BME280_humidity;BME280_pressure;Samples;Min_cycle;Max_cycle;Signal;HPM_P1;HPM_P2
2022/05/06 00:01:35;;;;;;;;;;;;;;;;;;5134603;28;19904;-51
2022/05/06 00:04:02;;;;;;;;;;;;;;;;;;5134710;28;19908;-51
2022/05/06 00:06:29;;;;;;;;;;;;;;;;;;5134546;28;19911;-51
2022/05/06 00:08:54;;;;;;;;;;;;;;;;;;5134589;28;19957;-50
2022/05/06 00:11:20;;;;;;;;;;;;;;;;;;5134541;28;19942;-49
2022/05/06 00:13:46;;;;;;;;;;;;;;;;;;5134532;28;19915;-50
2022/05/06 00:16:12;;;;;;;;;;;;;;;;;;5134457;28;19911;-50
2022/05/06 00:18:38;;;;;;;;;;;;;;;;;;5135764;27;19929;-50
2022/05/06 00:21:06;;;;;;;;;;;;;;;;;;5138706;27;20239;-50
2022/05/06 00:23:32;;;;;;;;;;;;;;;;;;5138509;27;19907;-50
2022/05/06 00:26:03;;;;;;;;;;;;;;;;;;5138443;27;19912;-50
2022/05/06 00:28:28;;;;;;;;;;;;;;;;;;5138330;27;20389;-49
2022/05/06 00:30:54;;;;;;;;;;;;;;;;;;5138404;27;19947;-50
2022/05/06 00:33:24;;;;;;;;;;;;;;;;;;5138415;27;19903;-50
2022/05/06 00:35:50;;;;;;;;;;;;;;;;;;5138426;27;19903;-51
2022/05/06 00:38:16;;;;;;;;;;;;;;;;;;5138196;27;20401;-51
2022/05/06 00:40:41;;;;;;;;;;;;;;;;;;5138298;27;20275;-50
2022/05/06 00:43:07;;;;;;;;;;;;;;;;;;5138034;27;19910;-50
2022/05/06 00:45:33;;;;;;;;;;;;;;;;;;5138039;27;19912;-51
2022/05/06 00:47:59;;;;;;;;;;;;;;;;;;5138325;27;19903;-51
2022/05/06 00:50:27;;;;;;;;;;;;;;;;;;5137987;27;19956;-51
2022/05/06 00:52:53;;;;;;;;;;;;;;;;;;5137970;27;19910;-52
2022/05/06 00:55:22;;;;;;;;;;;;;;;;;;5137962;27;19923;-51
2022/05/06 00:57:48;;;;;;;;;;;;;;;;;;5137959;27;19990;-51
2022/05/06 01:00:20;;;;;;;;;;;;;;;;;;5137836;27;19953;-50
2022/05/06 01:02:46;;;;;;;;;;;;;;;;;;5137766;27;20496;-50
2022/05/06 01:05:12;;;;;;;;;;;;;;;;;;5137523;27;19912;-51
2022/05/06 01:07:38;;;;;;;;;;;;;;;;;;5137815;27;19904;-51
2022/05/06 01:10:04;;;;;;;;;;;;;;;;;;5137652;27;20014;-51
2022/05/06 01:12:29;;;;;;;;;;;;;;;;;;5137744;27;19946;-50
2022/05/06 01:14:55;;;;;;;;;;;;;;;;;;5137374;27;19965;-50
2022/05/06 01:17:22;;;;;;;;;;;;;;;;;;5137646;27;19907;-51
2022/05/06 01:19:48;;;;;;;;;;;;;;;;;;5137576;27;20266;-50
2022/05/06 01:22:14;;;;;;;;;;;;;;;;;;5137304;27;19911;-51
2022/05/06 01:24:40;;;;;;;;;;;;;;;;;;5137474;27;19976;-51
2022/05/06 01:27:08;;;;;;;;;;;;;;;;;;5137490;27;20378;-51
2022/05/06 01:29:34;;;;;;;;;;;;;;;;;;5137199;27;19903;-51
2022/05/06 01:32:00;;;;;;;;;;;;;;;;;;5137030;27;19910;-51
2022/05/06 01:34:26;;;;;;;;;;;;;;;;;;5137241;27;19934;-50
2022/05/06 01:36:52;;;;;;;;;;;;;;;;;;5137246;27;19910;-50
2022/05/06 01:39:18;;;;;;;;;;;;;;;;;;5137410;27;19979;-50
2022/05/06 01:41:44;;;;;;;;;;;;;;;;;;5137249;27;19909;-51
2022/05/06 01:44:14;;;;;;;;;;;;;;;;;;5136774;27;20347;-50
2022/05/06 01:46:40;;;;;;;;;;;;;;;;;;5136898;27;20390;-51
2022/05/06 01:49:06;;;;;;;;;;;;;;;;;;5137125;27;19910;-51
2022/05/06 01:51:32;;;;;;;;;;;;;;;;;;5136787;27;19994;-48
2022/05/06 01:53:58;;;;;;;;;;;;;;;;;;5137157;27;19950;-51
2022/05/06 01:56:24;;;;;;;;;;;;;;;;;;5136935;27;19903;-50
2022/05/06 01:58:52;;;;;;;;;;;;;;;;;;5137061;27;19904;-55
2022/05/06 02:01:18;;;;;;;;;;;;;;;;;;5136779;27;19970;-53
2022/05/06 02:06:29;;;;;;;;;;;;;;;;;;5136759;27;20442;-51
2022/05/06 02:08:55;;;;;;;;;;;;;;;;;;5136557;27;19942;-51
2022/05/06 02:11:23;;;;;;;;;;;;;;;;;;5136634;27;19942;-50
2022/05/06 02:13:49;;;;;;;;;;;;;;;;;;5136304;27;19930;-50
2022/05/06 02:16:16;;;;;;;;;;;;;;;;;;5136640;27;19960;-52
2022/05/06 02:18:42;;;;;;;;;;;;;;;;;;5136518;27;19909;-51
2022/05/06 02:21:08;;;;;;;;;;;;;;;;;;5136169;27;19903;-50
2022/05/06 02:23:34;;;;;;;;;;;;;;;;;;5136205;27;19909;-50
2022/05/06 02:26:01;;;;;;;;;;;;;;;;;;5136434;27;19907;-50
2022/05/06 02:28:26;;;;;;;;;;;;;;;;;;5136145;27;19950;-50
2022/05/06 02:33:37;;;;;;;;;;;;;;;;;;5136099;27;19910;-50
2022/05/06 02:36:03;;;;;;;;;;;;;;;;;;5136200;27;20274;-50
2022/05/06 02:38:31;;;;;;;;;;;;;;;;;;5135916;27;19911;-50
2022/05/06 02:40:58;;;;;;;;;;;;;;;;;;5135969;27;19993;-51
2022/05/06 02:43:24;;;;;;;;;;;;;;;;;;5134638;27;19957;-48
2022/05/06 02:45:50;;;;;;;;;;;;;;;;;;5135968;27;19938;-51
2022/05/06 02:48:16;;;;;;;;;;;;;;;;;;5135937;27;20374;-50
2022/05/06 02:50:43;;;;;;;;;;;;;;;;;;5135720;27;19938;-51
2022/05/06 02:53:08;;;;;;;;;;;;;;;;;;5135754;27;19954;-51
2022/05/06 02:55:34;;;;;;;;;;;;;;;;;;5135661;27;19903;-50
2022/05/06 02:58:00;;;;;;;;;;;;;;;;;;5135562;27;19903;-50
2022/05/06 03:00:27;;;;;;;;;;;;;;;;;;5135776;27;20270;-50
2022/05/06 03:02:56;;;;;;;;;;;;;;;;;;5135569;27;19910;-50
2022/05/06 03:05:22;;;;;;;;;;;;;;;;;;5135275;27;19912;-48
2022/05/06 03:07:48;;;;;;;;;;;;;;;;;;5135384;27;19903;-51
2022/05/06 03:10:14;;;;;;;;;;;;;;;;;;5135412;27;19938;-50
2022/05/06 03:12:40;;;;;;;;;;;;;;;;;;5135184;27;20338;-51
2022/05/06 03:15:07;;;;;;;;;;;;;;;;;;5135117;27;19911;-50
2022/05/06 03:17:33;;;;;;;;;;;;;;;;;;5135366;27;20255;-51
2022/05/06 03:20:01;;;;;;;;;;;;;;;;;;5135539;27;19952;-50
2022/05/06 03:22:27;;;;;;;;;;;;;;;;;;5135098;27;19951;-49
2022/05/06 03:24:53;;;;;;;;;;;;;;;;;;5135318;27;19962;-49
2022/05/06 03:30:04;;;;;;;;;;;;;;;;;;5135106;27;20403;-51
2022/05/06 03:32:31;;;;;;;;;;;;;;;;;;5135177;27;19908;-50
2022/05/06 03:34:57;;;;;;;;;;;;;;;;;;5135023;27;19903;-50
2022/05/06 03:37:23;;;;;;;;;;;;;;;;;;5134938;27;19995;-51
2022/05/06 03:39:49;;;;;;;;;;;;;;;;;;5134970;27;19908;-51
2022/05/06 03:42:15;;;;;;;;;;;;;;;;;;5135158;27;19959;-50
2022/05/06 03:44:43;;;;;;;;;;;;;;;;;;5134631;27;19921;-51
2022/05/06 03:47:09;;;;;;;;;;;;;;;;;;5135005;27;20417;-50
2022/05/06 03:49:35;;;;;;;;;;;;;;;;;;5134992;27;19914;-47
2022/05/06 03:52:01;;;;;;;;;;;;;;;;;;5134777;28;19903;-50
2022/05/06 03:54:27;;;;;;;;;;;;;;;;;;5134541;27;19973;-51
2022/05/06 03:56:53;;;;;;;;;;;;;;;;;;5134635;28;19903;-50
2022/05/06 03:59:19;;;;;;;;;;;;;;;;;;5134997;28;20335;-51
2022/05/06 04:01:45;;;;;;;;;;;;;;;;;;5135006;28;19907;-50
2022/05/06 04:04:13;;;;;;;;;;;;;;;;;;5134802;28;19912;-50
2022/05/06 04:06:39;;;;;;;;;;;;;;;;;;5134822;28;20378;-51
2022/05/06 04:09:05;;;;;;;;;;;;;;;;;;5134721;28;19903;-51
2022/05/06 04:11:31;;;;;;;;;;;;;;;;;;5134790;28;19903;-50
2022/05/06 04:13:57;;;;;;;;;;;;;;;;;;5134584;28;19907;-48
2022/05/06 04:16:24;;;;;;;;;;;;;;;;;;5134550;28;19907;-49
2022/05/06 04:18:50;;;;;;;;;;;;;;;;;;5134644;28;19998;-50
2022/05/06 04:24:00;;;;;;;;;;;;;;;;;;5134366;28;19956;-51
2022/05/06 04:26:26;;;;;;;;;;;;;;;;;;5134349;28;19907;-50
2022/05/06 04:28:52;;;;;;;;;;;;;;;;;;5134588;28;19992;-51
2022/05/06 04:31:18;;;;;;;;;;;;;;;;;;5134538;28;19907;-48
2022/05/06 04:33:47;;;;;;;;;;;;;;;;;;5134748;28;20379;-53
2022/05/06 04:36:12;;;;;;;;;;;;;;;;;;5134163;28;19910;-50
2022/05/06 04:38:38;;;;;;;;;;;;;;;;;;5134217;28;19942;-50
2022/05/06 04:41:04;;;;;;;;;;;;;;;;;;5133630;28;19911;-50
2022/05/06 04:43:30;;;;;;;;;;;;;;;;;;5133363;28;20010;-50
2022/05/06 04:45:56;;;;;;;;;;;;;;;;;;5133783;28;19974;-51
2022/05/06 04:48:22;;;;;;;;;;;;;;;;;;5133810;28;19939;-51
2022/05/06 04:50:49;;;;;;;;;;;;;;;;;;5133607;28;19908;-51
2022/05/06 04:53:15;;;;;;;;;;;;;;;;;;5133786;28;20001;-50
2022/05/06 04:55:41;;;;;;;;;;;;;;;;;;5134098;28;19939;-47
2022/05/06 04:58:07;;;;;;;;;;;;;;;;;;5134128;28;19904;-50
2022/05/06 05:00:33;;;;;;;;;;;;;;;;;;5134159;28;19903;-48
2022/05/06 05:02:59;;;;;;;;;;;;;;;;;;5134144;28;19911;-48
2022/05/06 05:05:25;;;;;;;;;;;;;;;;;;5134942;27;20384;-50
2022/05/06 05:07:50;;;;;;;;;;;;;;;;;;5137690;27;19903;-48
2022/05/06 05:10:16;;;;;;;;;;;;;;;;;;5137543;27;19911;-50
2022/05/06 05:12:42;;;;;;;;;;;;;;;;;;5137846;27;19904;-50
2022/05/06 05:15:08;;;;;;;;;;;;;;;;;;5137620;27;19914;-50
2022/05/06 05:17:34;;;;;;;;;;;;;;;;;;5137571;27;19912;-49
2022/05/06 05:20:01;;;;;;;;;;;;;;;;;;5137720;27;20274;-48
2022/05/06 05:22:31;;;;;;;;;;;;;;;;;;5137369;27;20274;-47
2022/05/06 05:24:57;;;;;;;;;;;;;;;;;;5137112;27;20278;-50
2022/05/06 05:27:25;;;;;;;;;;;;;;;;;;5137524;27;19910;-48
2022/05/06 05:29:51;;;;;;;;;;;;;;;;;;5137341;27;20350;-51
2022/05/06 05:32:18;;;;;;;;;;;;;;;;;;5137531;27;19910;-51
2022/05/06 05:34:44;;;;;;;;;;;;;;;;;;5137314;27;20270;-59
2022/05/06 05:37:10;;;;;;;;;;;;;;;;;;5137184;27;19907;-58
2022/05/06 05:39:35;;;;;;;;;;;;;;;;;;5137058;27;20267;-60
2022/05/06 05:42:04;;;;;;;;;;;;;;;;;;5137071;27;19910;-53
2022/05/06 05:49:59;;;;;;;;;;;;;;;;;;5136971;27;19914;-55
2022/05/06 05:52:25;;;;;;;;;;;;;;;;;;5136811;27;20270;-54
2022/05/06 05:54:51;;;;;;;;;;;;;;;;;;5136820;27;19904;-56
2022/05/06 05:57:17;;;;;;;;;;;;;;;;;;5137315;27;20362;-61
2022/05/06 05:59:43;;;;;;;;;;;;;;;;;;5136815;27;19903;-55
2022/05/06 06:02:10;;;;;;;;;;;;;;;;;;5137164;27;20302;-53
2022/05/06 06:04:36;;;;;;;;;;;;;;;;;;5136804;27;20274;-56
2022/05/06 06:07:02;;;;;;;;;;;;;;;;;;5136628;27;19903;-56
2022/05/06 06:09:28;;;;;;;;;;;;;;;;;;5136854;27;19956;-56
2022/05/06 06:11:54;;;;;;;;;;;;;;;;;;5136716;27;19904;-57
2022/05/06 06:14:20;;;;;;;;;;;;;;;;;;5136501;27;20347;-57
2022/05/06 06:16:47;;;;;;;;;;;;;;;;;;5136637;27;20381;-56
2022/05/06 06:19:13;;;;;;;;;;;;;;;;;;5136402;27;20375;-56
2022/05/06 06:21:44;;;;;;;;;;;;;;;;;;5136381;27;19954;-54
2022/05/06 06:24:10;;;;;;;;;;;;;;;;;;5136145;27;19971;-54
2022/05/06 06:26:36;;;;;;;;;;;;;;;;;;5136389;27;20367;-56
2022/05/06 06:29:05;;;;;;;;;;;;;;;;;;5136178;27;19903;-57
2022/05/06 06:31:32;;;;;;;;;;;;;;;;;;5136426;27;20312;-57
2022/05/06 06:34:00;;;;;;;;;;;;;;;;;;5136083;27;19904;-56
2022/05/06 06:36:26;;;;;;;;;;;;;;;;;;5135924;27;20362;-55
2022/05/06 06:38:52;;;;;;;;;;;;;;;;;;5136293;27;19950;-54
2022/05/06 06:41:20;;;;;;;;;;;;;;;;;;5135941;27;19911;-56
2022/05/06 06:43:46;;;;;;;;;;;;;;;;;;5135823;27;19980;-54
2022/05/06 06:46:12;;;;;;;;;;;;;;;;;;5135979;27;20362;-56
2022/05/06 06:48:39;;;;;;;;;;;;;;;;;;5135933;27;20261;-56
2022/05/06 06:51:05;;;;;;;;;;;;;;;;;;5135692;27;19904;-54
2022/05/06 06:53:31;;;;;;;;;;;;;;;;;;5135841;27;19903;-56
2022/05/06 06:55:57;;;;;;;;;;;;;;;;;;5135672;27;20314;-55
2022/05/06 06:58:23;;;;;;;;;;;;;;;;;;5136002;27;19951;-54
2022/05/06 07:00:49;;;;;;;;;;;;;;;;;;5135693;27;19910;-55
2022/05/06 07:03:15;;;;;;;;;;;;;;;;;;5135528;27;20037;-55
2022/05/06 07:11:52;;;;;;;;;;;;;;;;;;5135365;27;19915;-55
2022/05/06 07:13:58;;;;;;;;;;;;;;;;;;5135362;27;19915;-56
2022/05/06 07:16:24;;;;;;;;;;;;;;;;;;5135300;27;19907;-55
2022/05/06 07:18:50;;;;;;;;;;;;;;;;;;5135297;27;20007;-55
2022/05/06 07:21:16;;;;;;;;;;;;;;;;;;5135431;27;19908;-54
2022/05/06 07:23:44;;;;;;;;;;;;;;;;;;5135086;27;19903;-55
2022/05/06 07:26:10;;;;;;;;;;;;;;;;;;5135231;27;20386;-55
2022/05/06 07:28:36;;;;;;;;;;;;;;;;;;5134812;27;19903;-53
2022/05/06 07:31:02;;;;;;;;;;;;;;;;;;5135147;27;19938;-55
2022/05/06 07:33:28;;;;;;;;;;;;;;;;;;5135161;27;20270;-55
2022/05/06 07:35:54;;;;;;;;;;;;;;;;;;5135116;27;19973;-57
2022/05/06 07:38:20;;;;;;;;;;;;;;;;;;5135162;27;20251;-57
2022/05/06 07:40:45;;;;;;;;;;;;;;;;;;5116934;27;19903;-57
2022/05/06 07:43:12;;;;;;;;;;;;;;;;;;5134828;27;19948;-55
2022/05/06 07:45:38;;;;;;;;;;;;;;;;;;5134766;27;19916;-56
2022/05/06 07:48:08;;;;;;;;;;;;;;;;;;5135096;27;19907;-55
2022/05/06 07:50:34;;;;;;;;;;;;;;;;;;5134937;27;19906;-62
2022/05/06 07:53:03;;;;;;;;;;;;;;;;;;5134676;28;19915;-55
2022/05/06 07:55:29;;;;;;;;;;;;;;;;;;5134771;28;19906;-49
2022/05/06 07:57:57;;;;;;;;;;;;;;;;;;5134801;28;19904;-58
2022/05/06 08:00:24;;;;;;;;;;;;;;;;;;5134629;28;20010;-65
2022/05/06 08:05:34;;;;;;;;;;;;;;;;;;5134706;28;19933;-63
2022/05/06 08:08:00;;;;;;;;;;;;;;;;;;5134674;28;20358;-51
2022/05/06 08:10:26;;;;;;;;;;;;;;;;;;5134620;28;19943;-62
2022/05/06 08:12:52;;;;;;;;;;;;;;;;;;5134596;28;19994;-57
2022/05/06 08:15:18;;;;;;;;;;;;;;;;;;5134316;28;19998;-58
2022/05/06 08:17:44;;;;;;;;;;;;;;;;;;5134655;28;19907;-56
2022/05/06 08:20:10;;;;;;;;;;;;;;;;;;5134524;28;19968;-50
2022/05/06 08:22:36;;;;;;;;;;;;;;;;;;5134449;28;19904;-51
2022/05/06 08:25:03;;;;;;;;;;;;;;;;;;5134356;28;19912;-58
2022/05/06 08:27:29;;;;;;;;;;;;;;;;;;5134436;28;19903;-56
2022/05/06 08:29:55;;;;;;;;;;;;;;;;;;5134390;28;20377;-55
2022/05/06 08:32:21;;;;;;;;;;;;;;;;;;5134388;28;20354;-54
2022/05/06 08:34:47;;;;;;;;;;;;;;;;;;5134544;28;19903;-51
2022/05/06 08:37:14;;;;;;;;;;;;;;;;;;5134577;28;19994;-51
2022/05/06 08:39:40;;;;;;;;;;;;;;;;;;5134342;27;19903;-54
2022/05/06 08:42:07;;;;;;;;;;;;;;;;;;5137993;27;19998;-55
2022/05/06 08:52:48;;;;;;;;;;;;;;;;;;5138060;27;19912;-55
2022/05/06 08:55:14;;;;;;;;;;;;;;;;;;5137914;27;19899;-50
2022/05/06 08:57:40;;;;;;;;;;;;;;;;;;5138045;27;19998;-50
2022/05/06 09:00:05;;;;;;;;;;;;;;;;;;5138180;27;19935;-53
2022/05/06 09:02:31;;;;;;;;;;;;;;;;;;5138135;27;19912;-53
2022/05/06 09:05:00;;;;;;;;;;;;;;;;;;5137792;27;19911;-51
2022/05/06 09:07:26;;;;;;;;;;;;;;;;;;5137785;27;19904;-52
2022/05/06 09:09:51;;;;;;;;;;;;;;;;;;5136564;27;19912;-53
2022/05/06 09:17:47;;;;;;;;;;;;;;;;;;5136705;27;19915;-51
2022/05/06 09:20:13;;;;;;;;;;;;;;;;;;5136752;27;19903;-50
2022/05/06 09:22:39;;;;;;;;;;;;;;;;;;5137014;27;19903;-53
2022/05/06 09:25:05;;;;;;;;;;;;;;;;;;5137048;27;19956;-50
2022/05/06 09:27:30;;;;;;;;;;;;;;;;;;5136932;27;19960;-50
2022/05/06 09:29:56;;;;;;;;;;;;;;;;;;5136896;27;19903;-49
2022/05/06 09:32:22;;;;;;;;;;;;;;;;;;5136871;27;19994;-50
2022/05/06 09:34:48;;;;;;;;;;;;;;;;;;5136950;27;19938;-50
2022/05/06 09:37:16;;;;;;;;;;;;;;;;;;5136719;27;19970;-49
2022/05/06 09:39:42;;;;;;;;;;;;;;;;;;5136822;27;20267;-49
2022/05/06 09:42:08;;;;;;;;;;;;;;;;;;5136835;27;19939;-51
2022/05/06 09:44:34;;;;;;;;;;;;;;;;;;5136373;27;19968;-49
2022/05/06 09:47:03;;;;;;;;;;;;;;;;;;5136813;27;20005;-50
2022/05/06 09:49:29;;;;;;;;;;;;;;;;;;5136086;27;19930;-49
2022/05/06 09:51:57;;;;;;;;;;;;;;;;;;5135271;27;20239;-50
2022/05/06 09:54:25;;;;;;;;;;;;;;;;;;5136296;27;19911;-49
2022/05/06 09:56:51;;;;;;;;;;;;;;;;;;5135967;27;19903;-51
2022/05/06 09:59:17;;;;;;;;;;;;;;;;;;5135461;27;19903;-49
2022/05/06 10:01:43;;;;;;;;;;;;;;;;;;5134769;27;19903;-50
2022/05/06 10:04:09;;;;;;;;;;;;;;;;;;5133853;27;19939;-50
2022/05/06 10:06:35;;;;;;;;;;;;;;;;;;5134970;27;19911;-49
2022/05/06 10:09:01;;;;;;;;;;;;;;;;;;5135792;27;19910;-50
2022/05/06 10:11:29;;;;;;;;;;;;;;;;;;5135057;27;19907;-50
2022/05/06 10:13:58;;;;;;;;;;;;;;;;;;5135308;27;20251;-50
2022/05/06 10:16:24;;;;;;;;;;;;;;;;;;5135579;27;19912;-49
2022/05/06 10:18:49;;;;;;;;;;;;;;;;;;5135912;27;19927;-50
2022/05/06 10:21:16;;;;;;;;;;;;;;;;;;5135644;27;20346;-50
2022/05/06 10:23:42;;;;;;;;;;;;;;;;;;5135940;27;19903;-49
2022/05/06 10:26:08;;;;;;;;;;;;;;;;;;5135820;27;20377;-53
2022/05/06 10:34:04;;;;;;;;;;;;;;;;;;5136117;27;19910;-50
2022/05/06 10:36:29;;;;;;;;;;;;;;;;;;5130780;27;19911;-49
2022/05/06 10:38:55;;;;;;;;;;;;;;;;;;5115090;28;19951;-49
2022/05/06 10:41:24;;;;;;;;;;;;;;;;;;5115426;28;19911;-50
2022/05/06 10:43:51;;;;;;;;;;;;;;;;;;5114848;28;19923;-49
2022/05/06 10:46:17;;;;;;;;;;;;;;;;;;5115347;28;19923;-50
2022/05/06 10:48:42;;;;;;;;;;;;;;;;;;5124595;27;19912;-49
2022/05/06 10:51:08;;;;;;;;;;;;;;;;;;5135708;27;20011;-49
2022/05/06 10:53:34;;;;;;;;;;;;;;;;;;5135562;27;20355;-49
2022/05/06 10:56:00;;;;;;;;;;;;;;;;;;5135599;27;19907;-49
2022/05/06 10:58:27;;;;;;;;;;;;;;;;;;5135652;27;19990;-49
2022/05/06 11:00:53;;;;;;;;;;;;;;;;;;5134285;27;19907;-54
2022/05/06 11:03:23;;;;;;;;;;;;;;;;;;5134244;27;19926;-49
2022/05/06 11:05:49;;;;;;;;;;;;;;;;;;5135118;27;19914;-53
2022/05/06 11:08:19;;;;;;;;;;;;;;;;;;5134893;27;19975;-50
2022/05/06 11:10:45;;;;;;;;;;;;;;;;;;5134826;27;19914;-49
2022/05/06 11:13:11;;;;;;;;;;;;;;;;;;5134745;27;19907;-50
2022/05/06 11:15:37;;;;;;;;;;;;;;;;;;5134930;27;20013;-50
2022/05/06 11:18:04;;;;;;;;;;;;;;;;;;5134742;27;19949;-48
2022/05/06 11:20:31;;;;;;;;;;;;;;;;;;5134786;27;19942;-49
2022/05/06 11:22:57;;;;;;;;;;;;;;;;;;5134605;27;19915;-50
2022/05/06 11:25:23;;;;;;;;;;;;;;;;;;5134664;27;19907;-49
2022/05/06 11:27:49;;;;;;;;;;;;;;;;;;5134774;27;19957;-49
2022/05/06 11:30:16;;;;;;;;;;;;;;;;;;5134904;27;19907;-49
2022/05/06 11:32:42;;;;;;;;;;;;;;;;;;5134521;27;19904;-50
2022/05/06 11:35:08;;;;;;;;;;;;;;;;;;5134502;27;19910;-50
2022/05/06 11:37:34;;;;;;;;;;;;;;;;;;5134348;27;19904;-50
2022/05/06 11:40:18;;;;;;;;;;;;;;;;;;5134514;27;19904;-49
2022/05/06 11:42:44;;;;;;;;;;;;;;;;;;5133871;27;20010;-49
2022/05/06 11:47:55;;;;;;;;;;;;;;;;;;5132186;27;20006;-49
2022/05/06 11:50:21;;;;;;;;;;;;;;;;;;5133433;27;19942;-49
2022/05/06 11:52:47;;;;;;;;;;;;;;;;;;5132710;27;19910;-49
2022/05/06 11:55:13;;;;;;;;;;;;;;;;;;5133375;27;19918;-50
2022/05/06 11:57:39;;;;;;;;;;;;;;;;;;5133376;28;19911;-47
2022/05/06 12:00:05;;;;;;;;;;;;;;;;;;5133336;28;19907;-48
2022/05/06 12:02:31;;;;;;;;;;;;;;;;;;5133551;28;20011;-51
2022/05/06 12:04:59;;;;;;;;;;;;;;;;;;5133810;28;19918;-49
2022/05/06 12:07:25;;;;;;;;;;;;;;;;;;5133892;28;19914;-50
2022/05/06 12:09:51;;;;;;;;;;;;;;;;;;5134457;28;20366;-50
2022/05/06 12:12:17;;;;;;;;;;;;;;;;;;5134495;28;19904;-49
2022/05/06 12:14:43;;;;;;;;;;;;;;;;;;5135757;27;19960;-50
2022/05/06 12:17:09;;;;;;;;;;;;;;;;;;5138777;27;20026;-48
2022/05/06 12:19:35;;;;;;;;;;;;;;;;;;5138719;27;19910;-50
2022/05/06 12:22:01;;;;;;;;;;;;;;;;;;5138695;27;19908;-48
2022/05/06 12:24:27;;;;;;;;;;;;;;;;;;5138471;27;19934;-50
2022/05/06 12:26:52;;;;;;;;;;;;;;;;;;5138375;27;19911;-49
2022/05/06 12:29:19;;;;;;;;;;;;;;;;;;5138507;27;19903;-52
2022/05/06 12:31:45;;;;;;;;;;;;;;;;;;5138618;27;20315;-55
2022/05/06 12:34:11;;;;;;;;;;;;;;;;;;5138632;27;19992;-49
2022/05/06 12:36:36;;;;;;;;;;;;;;;;;;5138170;27;19910;-48
2022/05/06 12:39:02;;;;;;;;;;;;;;;;;;5138405;27;19903;-48
2022/05/06 12:41:28;;;;;;;;;;;;;;;;;;5138288;27;20460;-48
2022/05/06 12:43:57;;;;;;;;;;;;;;;;;;5137823;27;19954;-52
2022/05/06 12:46:23;;;;;;;;;;;;;;;;;;5138183;27;19915;-53
2022/05/06 12:51:53;;;;;;;;;;;;;;;;;;5074709;28;19982;-50
2022/05/06 12:54:22;;;;;;;;;;;;;;;;;;5074659;28;19943;-49
2022/05/06 12:56:50;;;;;;;;;;;;;;;;;;5074618;28;19947;-49
2022/05/06 12:59:17;;;;;;;;;;;;;;;;;;5074792;28;19908;-49
2022/05/06 13:01:45;;;;;;;;;;;;;;;;;;5074638;28;20291;-48
2022/05/06 13:04:11;;;;;;;;;;;;;;;;;;5074557;28;19920;-48
2022/05/06 13:06:37;;;;;;;;;;;;;;;;;;5061220;28;19912;-49
2022/05/06 13:09:03;;;;;;;;;;;;;;;;;;5074070;28;19948;-48
2022/05/06 13:11:29;;;;;;;;;;;;;;;;;;5074455;28;19905;-49
2022/05/06 13:13:55;;;;;;;;;;;;;;;;;;5074315;28;20303;-49
2022/05/06 13:16:21;;;;;;;;;;;;;;;;;;5074285;28;20344;-49
2022/05/06 13:18:52;;;;;;;;;;;;;;;;;;5074509;28;19957;-49
2022/05/06 13:21:18;;;;;;;;;;;;;;;;;;5074275;28;19957;-49
2022/05/06 13:23:44;;;;;;;;;;;;;;;;;;5131036;27;19903;-49
2022/05/06 13:26:10;;;;;;;;;;;;;;;;;;5136442;27;19915;-49
2022/05/06 13:28:36;;;;;;;;;;;;;;;;;;5137615;27;19956;-64
2022/05/06 13:31:02;;;;;;;;;;;;;;;;;;5137370;27;20426;-67
2022/05/06 13:33:29;;;;;;;;;;;;;;;;;;5137438;27;19903;-54
2022/05/06 13:35:55;;;;;;;;;;;;;;;;;;5137023;27;19952;-54
2022/05/06 13:38:21;;;;;;;;;;;;;;;;;;5137217;27;20023;-53
2022/05/06 13:40:48;;;;;;;;;;;;;;;;;;5137166;27;20468;-54
2022/05/06 13:43:14;;;;;;;;;;;;;;;;;;5137160;27;19903;-54
2022/05/06 13:45:40;;;;;;;;;;;;;;;;;;5137100;27;20259;-59
2022/05/06 13:48:06;;;;;;;;;;;;;;;;;;5137289;27;20363;-55
2022/05/06 13:50:32;;;;;;;;;;;;;;;;;;5136956;27;19915;-61
2022/05/06 13:53:00;;;;;;;;;;;;;;;;;;5136948;27;19911;-63
2022/05/06 13:59:03;;;;;;;;;;;;;;;;;;5136647;27;19910;-52
2022/05/06 14:00:57;;;;;;;;;;;;;;;;;;5136930;27;19926;-53
2022/05/06 14:03:23;;;;;;;;;;;;;;;;;;5136665;27;20354;-52
2022/05/06 14:05:49;;;;;;;;;;;;;;;;;;5136431;27;19911;-53
2022/05/06 14:08:15;;;;;;;;;;;;;;;;;;5136577;27;19910;-53
2022/05/06 14:10:43;;;;;;;;;;;;;;;;;;5135814;27;19946;-65
2022/05/06 14:13:09;;;;;;;;;;;;;;;;;;5136082;27;19911;-53
2022/05/06 14:15:35;;;;;;;;;;;;;;;;;;5136172;27;19908;-63
2022/05/06 14:18:02;;;;;;;;;;;;;;;;;;5135940;27;20244;-63
2022/05/06 14:20:27;;;;;;;;;;;;;;;;;;5135949;27;20377;-52
2022/05/06 14:22:53;;;;;;;;;;;;;;;;;;5135786;27;19911;-64
2022/05/06 14:25:19;;;;;;;;;;;;;;;;;;5135646;27;19911;-67
2022/05/06 14:27:46;;;;;;;;;;;;;;;;;;5135160;27;19907;-52
2022/05/06 14:30:12;;;;;;;;;;;;;;;;;;5135832;27;19907;-57
2022/05/06 14:32:38;;;;;;;;;;;;;;;;;;5135664;27;19904;-63
2022/05/06 14:35:16;;;;;;;;;;;;;;;;;;5135196;27;19907;-56
2022/05/06 14:37:42;;;;;;;;;;;;;;;;;;5133706;27;20320;-56
2022/05/06 14:40:10;;;;;;;;;;;;;;;;;;5135498;27;19945;-55
2022/05/06 14:42:36;;;;;;;;;;;;;;;;;;5135984;27;20014;-55
2022/05/06 14:45:02;;;;;;;;;;;;;;;;;;5135601;27;19915;-65
2022/05/06 14:47:28;;;;;;;;;;;;;;;;;;5128488;27;19919;-61
2022/05/06 14:49:54;;;;;;;;;;;;;;;;;;5106808;27;20370;-65
2022/05/06 14:52:23;;;;;;;;;;;;;;;;;;5105111;27;19908;-63
2022/05/06 14:54:49;;;;;;;;;;;;;;;;;;5105149;27;19914;-57
2022/05/06 14:57:15;;;;;;;;;;;;;;;;;;5105200;27;20606;-58
2022/05/06 14:59:41;;;;;;;;;;;;;;;;;;5105170;27;20458;-60
2022/05/06 15:02:07;;;;;;;;;;;;;;;;;;5105128;27;20081;-58
2022/05/06 15:04:33;;;;;;;;;;;;;;;;;;5105279;27;19907;-53
2022/05/06 15:07:01;;;;;;;;;;;;;;;;;;5109152;27;19915;-66
2022/05/06 15:09:27;;;;;;;;;;;;;;;;;;5108072;27;20221;-64
2022/05/06 15:11:53;;;;;;;;;;;;;;;;;;5108727;27;20527;-59
2022/05/06 15:14:31;;;;;;;;;;;;;;;;;;5104921;27;19907;-55
2022/05/06 15:16:58;;;;;;;;;;;;;;;;;;5105706;27;19917;-67
2022/05/06 15:19:24;;;;;;;;;;;;;;;;;;5104707;27;19915;-56
2022/05/06 15:21:53;;;;;;;;;;;;;;;;;;5105011;27;19935;-55
2022/05/06 15:24:24;;;;;;;;;;;;;;;;;;5105570;27;19936;-65
2022/05/06 15:26:52;;;;;;;;;;;;;;;;;;5121899;27;19915;-67
2022/05/06 15:29:18;;;;;;;;;;;;;;;;;;5112813;27;19914;-68
2022/05/06 15:31:44;;;;;;;;;;;;;;;;;;5112756;27;19907;-64
2022/05/06 15:34:13;;;;;;;;;;;;;;;;;;5108001;27;19915;-67
2022/05/06 15:36:38;;;;;;;;;;;;;;;;;;5104315;27;19982;-54
2022/05/06 15:39:04;;;;;;;;;;;;;;;;;;5104640;27;20398;-54
2022/05/06 15:41:30;;;;;;;;;;;;;;;;;;5104242;27;19907;-52
2022/05/06 15:43:56;;;;;;;;;;;;;;;;;;5104932;27;19927;-51
2022/05/06 15:46:22;;;;;;;;;;;;;;;;;;5105387;27;19920;-53
2022/05/06 15:48:48;;;;;;;;;;;;;;;;;;5104418;27;20328;-53
2022/05/06 15:51:18;;;;;;;;;;;;;;;;;;5106806;27;20598;-53
2022/05/06 15:53:44;;;;;;;;;;;;;;;;;;5104330;27;19919;-53
2022/05/06 15:56:10;;;;;;;;;;;;;;;;;;5103993;27;20423;-52
2022/05/06 15:58:36;;;;;;;;;;;;;;;;;;5105008;27;19908;-47
2022/05/06 16:01:02;;;;;;;;;;;;;;;;;;5104924;27;19914;-49
2022/05/06 16:03:28;;;;;;;;;;;;;;;;;;5104968;27;20279;-48
2022/05/06 16:05:54;;;;;;;;;;;;;;;;;;5104793;27;19962;-48
2022/05/06 16:08:20;;;;;;;;;;;;;;;;;;5104251;27;20022;-46
2022/05/06 16:11:11;;;;;;;61.70;29.00;;;;;;;;;;5067006;27;20556;-46
2022/05/06 16:13:37;;;;;;;42.67;24.08;;;;;;;;;;5067046;28;20028;-47
2022/05/06 16:16:04;;;;;;;69.00;17.38;;;;;;;;;;5067129;28;20113;-57
2022/05/06 16:18:30;;;;;;;5.93;3.58;;;;;;;;;;5066736;28;20027;-46
2022/05/06 16:20:56;;;;;;;6.68;3.35;;;;;;;;;;5067101;28;21773;-48
2022/05/06 16:23:23;;;;;;;8.38;3.35;;;;;;;;;;5066698;28;20016;-50
2022/05/06 16:25:50;;;;;;;6.38;3.17;;;;;;;;;;5066201;28;21257;-48
2022/05/06 16:28:19;;;;;;;5.28;2.60;;;;;;;;;;5066337;28;20024;-47
2022/05/06 16:30:48;;;;;;;13.73;3.88;;;;;;;;;;5065637;28;20151;-46
2022/05/06 16:33:14;;;;;;;8.00;3.40;;;;;;;;;;5063994;28;20023;-47
2022/05/06 16:38:25;;;;;;;15.27;6.00;;;;;;;;;;5066048;28;20152;-47
2022/05/06 16:40:51;;;;;;;161.52;102.82;;;;;;;;;;5064635;28;20048;-48
2022/05/06 16:43:18;;;;;;;22.13;12.73;;;;;;;;;;5066614;28;20056;-48
2022/05/06 16:45:45;;;;;;;19.90;7.45;;;;;;;;;;5065961;28;20028;-47
2022/05/06 16:48:12;;;;;;;7.68;3.20;;;;;;;;;;5065749;28;20029;-48
2022/05/06 16:50:41;;;;;;;7.38;3.03;;;;;;;;;;5066349;28;20032;-49
2022/05/06 16:53:08;;;;;;;5.95;3.33;;;;;;;;;;5066094;28;20491;-48
2022/05/06 16:55:34;;;;;;;5.45;3.00;;;;;;;;;;5064701;28;20036;-50
2022/05/06 16:58:01;;;;;;;26.88;10.70;;;;;;;;;;5066183;28;20032;-48
2022/05/06 17:00:27;;;;;;;45.92;17.05;;;;;;;;;;5063533;28;20020;-47
2022/05/06 17:02:53;;;;;;;95.28;52.95;;;;;;;;;;5063630;28;20017;-46
2022/05/06 17:05:20;;;;;;;22.38;11.82;;;;;;;;;;5064594;28;20028;-47
2022/05/06 17:07:48;;;;;;;13.52;7.43;;;;;;;;;;5064113;28;20093;-47
2022/05/06 17:10:19;;;;;;;8.02;4.20;;;;;;;;;;5064441;28;20133;-46
2022/05/06 17:12:45;;;;;;;12.80;5.75;;;;;;;;;;5063688;28;20031;-47
2022/05/06 17:15:16;;;;;;;14.95;7.13;;;;;;;;;;5065685;28;20033;-48
2022/05/06 17:17:42;;;;;;;;;;;;;;;;;;5066581;28;20020;-49
2022/05/06 17:20:08;;;;;;;5.50;3.05;;;;;;;;;;5065658;28;20356;-46
2022/05/06 17:22:35;;;;;;;10.45;2.90;;;;;;;;;;5050791;28;20028;-47
2022/05/06 17:25:01;;;;;;;7.10;2.90;;;;;;;;;;5051753;28;20773;-47